Time;durP1;ratioP1;P1;durP2;ratioP2;P2;SDS_P1;SDS_P2;PMS_P1;PMS_P2;Temp;Humidity;BMP_temperature;BMP_pressure;BME280_temperature;BME280_humidity;BME280_pressure;Samples;Min_cycle;Max_cycle;Signal;HPM_P1;HPM_P2
2021/07/20 00:02:38;;;;;;;29.35;17.13;;;15.00;98.00;;;;;;6219703;23;20005;-79
2021/07/20 00:05:05;;;;;;;28.85;15.85;;;14.80;97.90;;;;;;6193335;23;20080;-79
2021/07/20 00:07:31;;;;;;;26.63;16.30;;;14.80;97.90;;;;;;6219860;23;20001;-80
2021/07/20 00:09:58;;;;;;;28.75;17.35;;;14.70;97.80;;;;;;6219469;23;20302;-79
2021/07/20 00:12:23;;;;;;;26.40;17.17;;;14.70;97.90;;;;;;6219584;23;20008;-79
2021/07/20 00:14:49;;;;;;;45.10;18.25;;;14.60;97.80;;;;;;6191911;23;20004;-79
2021/07/20 00:17:15;;;;;;;24.58;16.67;;;14.60;97.80;;;;;;6193526;23;20046;-79
2021/07/20 00:19:41;;;;;;;25.33;15.70;;;14.40;97.90;;;;;;6193300;23;20004;-79
2021/07/20 00:22:07;;;;;;;34.45;18.60;;;14.30;97.90;;;;;;6219301;23;20005;-79
2021/07/20 00:24:33;;;;;;;28.08;17.08;;;14.20;97.80;;;;;;6219446;23;20012;-79
2021/07/20 00:26:58;;;;;;;27.45;16.45;;;14.20;97.60;;;;;;6219578;23;19997;-79
2021/07/20 00:29:24;;;;;;;32.30;17.92;;;14.20;97.70;;;;;;6219180;23;20074;-79
2021/07/20 00:31:49;;;;;;;30.08;17.55;;;14.20;97.70;;;;;;6218057;23;20028;-79
2021/07/20 00:34:15;;;;;;;25.73;16.33;;;14.20;97.50;;;;;;6219536;23;20028;-79
2021/07/20 00:36:41;;;;;;;26.27;16.52;;;14.20;97.60;;;;;;6219272;23;20000;-79
2021/07/20 00:39:06;;;;;;;30.83;17.98;;;14.20;97.50;;;;;;6219449;23;20005;-80
2021/07/20 00:41:32;;;;;;;30.35;18.88;;;14.10;97.60;;;;;;6192913;23;20330;-80
2021/07/20 00:43:58;;;;;;;34.08;19.10;;;14.10;97.40;;;;;;6219483;23;20313;-79
2021/07/20 00:46:23;;;;;;;29.20;18.80;;;14.10;97.40;;;;;;6217879;23;20139;-79
2021/07/20 00:48:52;;;;;;;28.75;18.23;;;14.20;97.50;;;;;;6219436;23;20030;-79
2021/07/20 00:51:18;;;;;;;31.95;19.48;;;14.10;97.30;;;;;;6192473;23;20395;-80
2021/07/20 00:53:43;;;;;;;31.98;20.17;;;14.10;97.40;;;;;;6219072;23;20008;-79
2021/07/20 00:56:09;;;;;;;32.70;19.48;;;14.10;97.50;;;;;;6219335;23;20035;-80
2021/07/20 00:58:35;;;;;;;32.17;18.77;;;14.10;97.30;;;;;;6192326;23;20000;-79
2021/07/20 01:01:01;;;;;;;28.85;16.08;;;14.00;97.50;;;;;;6217685;23;20009;-79
2021/07/20 01:03:27;;;;;;;29.55;17.80;;;13.90;97.70;;;;;;6219240;23;20008;-80
2021/07/20 01:05:53;;;;;;;30.02;18.48;;;13.90;97.70;;;;;;6192671;23;20008;-79
2021/07/20 01:08:19;;;;;;;31.08;18.38;;;13.70;97.80;;;;;;6192670;23;20092;-79
2021/07/20 01:10:45;;;;;;;28.60;17.55;;;13.60;97.60;;;;;;6219076;23;19996;-79
2021/07/20 01:13:13;;;;;;;32.75;18.92;;;13.50;97.50;;;;;;6192614;23;20009;-79
2021/07/20 01:15:40;;;;;;;28.95;18.08;;;13.50;97.60;;;;;;6217875;23;19996;-79
2021/07/20 01:18:06;;;;;;;37.75;19.73;;;13.40;97.50;;;;;;6192471;23;20004;-79
2021/07/20 01:20:33;;;;;;;37.47;20.15;;;13.40;97.30;;;;;;6219008;23;20309;-79
2021/07/20 01:23:17;;;;;;;35.45;19.27;;;13.40;97.10;;;;;;6218703;23;20012;-79
2021/07/20 01:25:43;;;;;;;30.42;17.65;;;13.40;97.20;;;;;;6218641;23;20005;-79
2021/07/20 01:28:17;;;;;;;30.60;19.17;;;13.30;97.00;;;;;;6192605;23;20087;-78
2021/07/20 01:30:44;;;;;;;;;;;13.30;96.80;;;;;;6217819;23;20001;-79
2021/07/20 01:33:11;;;;;;;30.63;18.75;;;13.30;96.80;;;;;;6218799;23;20300;-81
2021/07/20 01:35:37;;;;;;;30.33;18.10;;;13.30;97.00;;;;;;6218580;23;20028;-81
2021/07/20 01:38:08;;;;;;;33.00;18.67;;;13.30;96.80;;;;;;6192359;23;20024;-80
2021/07/20 01:40:34;;;;;;;28.73;18.83;;;13.30;96.80;;;;;;6218897;23;20001;-80
2021/07/20 01:43:01;;;;;;;34.25;19.40;;;13.20;97.00;;;;;;6218881;23;20011;-80
2021/07/20 01:45:30;;;;;;;31.40;18.02;;;13.20;96.60;;;;;;6216802;23;20028;-78
2021/07/20 01:47:58;;;;;;;29.15;18.67;;;13.20;96.70;;;;;;6219111;23;20003;-79
2021/07/20 01:50:25;;;;;;;31.83;17.95;;;13.10;96.90;;;;;;6218720;23;20000;-79
2021/07/20 01:52:54;;;;;;;31.42;18.67;;;13.10;96.60;;;;;;6218515;23;20009;-79
2021/07/20 01:55:22;;;;;;;30.05;18.40;;;13.10;96.40;;;;;;6218858;23;20076;-79
2021/07/20 01:57:48;;;;;;;34.42;19.65;;;13.00;96.40;;;;;;6218631;23;19997;-79
2021/07/20 02:00:18;;;;;;;49.42;20.42;;;12.90;96.90;;;;;;6217283;23;20012;-79
2021/07/20 02:03:11;;;;;;;33.45;19.42;;;12.90;96.20;;;;;;6218610;23;20008;-79
2021/07/20 02:08:29;;;;;;;31.20;18.77;;;13.00;96.10;;;;;;6218669;23;20020;-79
2021/07/20 02:10:58;;;;;;;31.27;19.17;;;13.00;96.20;;;;;;6218708;23;20274;-79
2021/07/20 02:13:26;;;;;;;44.22;19.75;;;12.90;96.40;;;;;;6191984;23;20009;-79
2021/07/20 02:15:53;;;;;;;38.92;20.60;;;12.90;96.40;;;;;;6217166;23;20096;-79
2021/07/20 02:18:22;;;;;;;31.45;19.30;;;12.80;96.30;;;;;;6218670;23;20051;-79
2021/07/20 02:20:48;;;;;;;32.53;18.70;;;12.90;95.90;;;;;;6192049;23;20278;-80
2021/07/20 02:23:14;;;;;;;32.85;20.65;;;12.90;95.70;;;;;;6218643;23;20005;-79
2021/07/20 02:25:41;;;;;;;33.70;20.50;;;13.00;96.10;;;;;;6218408;23;20072;-79
2021/07/20 02:28:08;;;;;;;32.03;20.05;;;12.90;96.20;;;;;;6218557;23;20016;-79
2021/07/20 02:30:35;;;;;;;32.35;19.55;;;12.90;96.20;;;;;;6217106;23;19997;-79
2021/07/20 02:33:05;;;;;;;31.00;18.75;;;12.80;96.40;;;;;;6192124;23;20095;-79
2021/07/20 02:35:31;;;;;;;34.22;19.33;;;12.80;96.30;;;;;;6218315;23;19996;-79
2021/07/20 02:37:59;;;;;;;35.28;20.23;;;12.70;96.50;;;;;;6192161;23;20008;-79
2021/07/20 02:40:26;;;;;;;34.95;19.73;;;12.60;96.10;;;;;;6218513;23;20004;-80
2021/07/20 02:42:55;;;;;;;30.02;18.17;;;12.60;96.30;;;;;;6191965;23;20004;-79
2021/07/20 02:45:21;;;;;;;35.88;19.45;;;12.60;96.30;;;;;;6190864;23;20023;-81
2021/07/20 02:47:49;;;;;;;33.03;19.02;;;12.50;96.20;;;;;;6220019;23;20103;-79
2021/07/20 02:50:16;;;;;;;36.72;20.27;;;12.60;96.10;;;;;;6194132;23;20019;-79
2021/07/20 02:52:44;;;;;;;32.08;19.58;;;12.50;96.30;;;;;;6219909;23;20091;-79
2021/07/20 02:55:12;;;;;;;36.03;20.15;;;12.40;96.20;;;;;;6193976;23;20007;-79
2021/07/20 02:57:39;;;;;;;36.60;20.30;;;12.50;95.80;;;;;;6220073;23;20001;-79
2021/07/20 03:00:09;;;;;;;34.85;20.55;;;12.50;96.00;;;;;;6192522;23;20009;-80
2021/07/20 03:02:37;;;;;;;37.33;21.00;;;12.40;96.20;;;;;;6220334;23;20020;-79
2021/07/20 03:05:04;;;;;;;32.53;19.95;;;12.30;96.20;;;;;;6220160;23;20294;-79
2021/07/20 03:07:32;;;;;;;36.47;21.42;;;12.40;95.70;;;;;;6220117;23;20004;-79
2021/07/20 03:09:59;;;;;;;33.72;19.42;;;12.30;95.70;;;;;;6220010;23;20012;-80
2021/07/20 03:12:27;;;;;;;31.45;20.40;;;12.30;95.80;;;;;;6220213;23;20083;-79
2021/07/20 03:14:55;;;;;;;35.90;20.00;;;12.30;96.00;;;;;;6218636;23;20593;-79
2021/07/20 03:17:23;;;;;;;36.17;20.38;;;12.30;95.60;;;;;;6220318;23;20001;-79
2021/07/20 03:19:51;;;;;;;31.88;19.33;;;12.30;95.20;;;;;;6193641;23;20271;-79
2021/07/20 03:22:19;;;;;;;38.53;21.08;;;12.30;95.50;;;;;;6220354;23;20011;-79
2021/07/20 03:24:47;;;;;;;37.97;20.77;;;12.30;95.50;;;;;;6193264;23;20358;-79
2021/07/20 03:27:13;;;;;;;38.20;20.92;;;12.30;95.70;;;;;;6219931;23;20001;-80
2021/07/20 03:29:44;;;;;;;33.83;19.73;;;12.20;95.50;;;;;;6218719;23;20030;-79
2021/07/20 03:32:12;;;;;;;34.33;20.52;;;12.20;95.30;;;;;;6219601;23;20005;-79
2021/07/20 03:34:39;;;;;;;33.60;20.27;;;12.20;95.60;;;;;;6220014;23;20008;-79
2021/07/20 03:37:07;;;;;;;35.58;20.15;;;12.10;95.90;;;;;;6219487;23;20004;-79
2021/07/20 03:39:34;;;;;;;38.25;20.45;;;12.10;95.30;;;;;;6193520;23;20461;-78
2021/07/20 03:42:00;;;;;;;34.90;21.27;;;12.20;95.00;;;;;;6220044;23;20008;-79
2021/07/20 03:44:29;;;;;;;36.78;20.67;;;12.20;95.10;;;;;;6219467;23;20001;-79
2021/07/20 03:46:56;;;;;;;34.30;20.65;;;12.20;95.20;;;;;;6218379;23;20016;-79
2021/07/20 03:49:27;;;;;;;33.25;20.27;;;12.20;95.20;;;;;;6219692;23;20390;-79
2021/07/20 03:51:56;;;;;;;33.15;19.45;;;12.20;95.10;;;;;;6219517;23;20016;-79
2021/07/20 03:54:23;;;;;;;30.90;19.60;;;12.20;95.30;;;;;;6219674;23;20001;-79
2021/07/20 03:56:49;;;;;;;32.10;19.42;;;12.10;95.50;;;;;;6220005;23;20000;-79
2021/07/20 03:59:17;;;;;;;34.97;20.55;;;12.00;95.90;;;;;;6219285;23;20259;-79
2021/07/20 04:01:46;;;;;;;33.92;19.80;;;12.00;95.50;;;;;;6218053;23;20024;-78
2021/07/20 04:04:16;;;;;;;33.30;19.85;;;11.90;95.50;;;;;;6219336;23;20076;-78
2021/07/20 04:06:42;;;;;;;37.85;20.75;;;12.00;95.20;;;;;;6219965;23;20359;-79
2021/07/20 04:09:10;;;;;;;38.08;19.98;;;12.00;95.10;;;;;;6193218;23;20012;-78
2021/07/20 04:11:37;;;;;;;35.53;19.65;;;12.10;95.30;;;;;;6192691;23;20005;-78
2021/07/20 04:14:06;;;;;;;37.00;20.20;;;12.10;95.20;;;;;;6219758;23;20363;-78
2021/07/20 04:16:34;;;;;;;33.58;19.42;;;12.20;95.00;;;;;;6191821;23;20394;-78
2021/07/20 04:19:00;;;;;;;34.03;19.38;;;12.20;95.00;;;;;;6219459;23;20000;-78
2021/07/20 04:21:27;;;;;;;35.83;20.77;;;12.30;95.10;;;;;;6219001;23;20004;-78
2021/07/20 04:23:53;;;;;;;37.75;20.90;;;12.30;95.10;;;;;;6219367;23;20385;-79
2021/07/20 04:26:20;;;;;;;35.13;20.38;;;12.30;95.20;;;;;;6219402;23;20267;-78
2021/07/20 04:28:46;;;;;;;34.83;19.83;;;12.40;95.20;;;;;;6219391;23;20005;-78
2021/07/20 04:31:15;;;;;;;33.55;18.40;;;12.30;95.50;;;;;;6217317;23;20111;-80
2021/07/20 04:33:46;;;;;;;35.75;21.55;;;12.40;95.10;;;;;;6218675;23;20059;-81
2021/07/20 04:36:13;;;;;;;38.78;20.77;;;12.40;94.90;;;;;;6219192;23;20070;-78
2021/07/20 04:38:40;;;;;;;32.70;20.98;;;12.50;95.10;;;;;;6219398;23;20043;-79
2021/07/20 04:41:06;;;;;;;31.80;19.55;;;12.40;95.30;;;;;;6218986;23;20005;-79
2021/07/20 04:43:32;;;;;;;31.77;19.48;;;12.50;95.30;;;;;;6219104;23;20008;-79
2021/07/20 04:46:00;;;;;;;37.25;19.90;;;12.50;95.20;;;;;;6216899;23;20012;-79
2021/07/20 04:48:27;;;;;;;36.80;20.20;;;12.50;95.50;;;;;;6192858;23;20008;-79
2021/07/20 04:50:54;;;;;;;31.10;18.27;;;12.60;95.30;;;;;;6218328;23;20332;-79
2021/07/20 04:53:21;;;;;;;34.40;19.48;;;12.60;95.50;;;;;;6217922;23;19997;-79
2021/07/20 04:55:50;;;;;;;34.40;19.45;;;12.60;95.70;;;;;;6191537;23;20015;-79
2021/07/20 04:58:18;;;;;;;33.58;19.80;;;12.60;95.60;;;;;;6191648;23;20058;-79
2021/07/20 05:00:48;;;;;;;34.70;20.80;;;12.70;95.60;;;;;;6217323;23;20026;-79
2021/07/20 05:03:14;;;;;;;33.45;19.33;;;12.70;95.90;;;;;;6219054;23;20071;-79
2021/07/20 05:05:41;;;;;;;31.15;18.23;;;12.80;95.70;;;;;;6218952;23;20119;-79
2021/07/20 05:08:09;;;;;;;32.17;19.77;;;12.90;95.80;;;;;;6219120;23;20031;-79
2021/07/20 05:10:39;;;;;;;35.35;19.75;;;12.90;96.10;;;;;;6192793;23;20012;-79
2021/07/20 05:13:08;;;;;;;34.17;20.08;;;12.90;96.00;;;;;;6218266;23;20005;-79
2021/07/20 05:15:34;;;;;;;35.55;17.75;;;13.10;96.00;;;;;;6217120;23;20058;-79
2021/07/20 05:18:01;;;;;;;34.78;19.58;;;13.20;95.90;;;;;;6192810;23;20382;-79
2021/07/20 05:20:28;;;;;;;33.45;18.70;;;13.30;95.80;;;;;;6218798;23;20036;-79
2021/07/20 05:22:54;;;;;;;32.25;19.50;;;13.40;96.20;;;;;;6192032;23;20005;-79
2021/07/20 05:25:20;;;;;;;30.48;19.48;;;13.50;96.70;;;;;;6219241;23;20071;-79
2021/07/20 05:27:51;;;;;;;30.90;19.38;;;13.60;96.60;;;;;;6219133;23;20051;-78
2021/07/20 05:30:17;;;;;;;31.23;19.23;;;13.70;97.40;;;;;;6217768;23;20095;-79
2021/07/20 05:32:45;;;;;;;34.55;19.67;;;13.70;97.60;;;;;;6192538;23;20270;-79
2021/07/20 05:35:16;;;;;;;35.70;18.85;;;13.90;97.80;;;;;;6192739;23;20000;-79
2021/07/20 05:37:43;;;;;;;29.00;17.63;;;14.00;97.90;;;;;;6192972;23;20134;-79
2021/07/20 05:40:11;;;;;;;32.63;18.25;;;14.20;98.00;;;;;;6218972;23;20005;-79
2021/07/20 05:42:37;;;;;;;32.67;19.15;;;14.50;97.20;;;;;;6192661;23;20034;-79
2021/07/20 05:45:06;;;;;;;28.90;19.25;;;14.80;97.80;;;;;;6190987;23;20021;-79
2021/07/20 05:47:38;;;;;;;31.08;19.35;;;15.10;98.00;;;;;;6218988;23;20375;-79
2021/07/20 05:50:06;;;;;;;33.22;19.83;;;15.20;98.00;;;;;;6219136;23;21864;-79
2021/07/20 05:52:34;;;;;;;33.05;20.20;;;15.30;98.00;;;;;;6218930;23;19997;-78
2021/07/20 05:55:01;;;;;;;32.05;18.92;;;15.20;98.00;;;;;;6192683;23;20008;-79
2021/07/20 05:57:28;;;;;;;31.70;19.98;;;15.30;98.00;;;;;;6192436;23;20032;-78
2021/07/20 05:59:54;;;;;;;31.10;20.20;;;15.30;98.00;;;;;;6217069;23;20091;-79
2021/07/20 06:02:22;;;;;;;34.80;20.58;;;15.30;98.00;;;;;;6219011;23;20267;-79
2021/07/20 06:04:50;;;;;;;35.47;20.38;;;15.50;98.00;;;;;;6218503;23;20310;-78
2021/07/20 06:07:16;;;;;;;38.13;20.38;;;15.70;98.00;;;;;;6191405;23;20083;-79
2021/07/20 06:09:44;;;;;;;32.28;19.27;;;15.90;98.00;;;;;;6192454;23;20001;-78
2021/07/20 06:12:15;;;;;;;29.98;18.92;;;16.20;98.00;;;;;;6218693;23;20001;-79
2021/07/20 06:14:41;;;;;;;30.35;18.70;;;16.30;97.80;;;;;;6190999;23;20009;-78
2021/07/20 06:17:07;;;;;;;29.73;17.75;;;16.40;97.90;;;;;;6218682;23;20054;-79
2021/07/20 06:19:33;;;;;;;32.58;19.35;;;16.50;97.50;;;;;;6218806;23;20001;-79
2021/07/20 06:22:04;;;;;;;30.10;18.52;;;16.40;97.50;;;;;;6219283;23;20009;-80
2021/07/20 06:24:34;;;;;;;28.95;18.83;;;16.50;97.40;;;;;;6220900;23;20003;-79
2021/07/20 06:27:00;;;;;;;29.90;18.73;;;16.70;97.40;;;;;;6220824;23;20058;-79
2021/07/20 06:29:27;;;;;;;32.58;18.83;;;16.80;97.10;;;;;;6194396;23;20012;-79
2021/07/20 06:31:54;;;;;;;29.77;18.45;;;16.80;97.00;;;;;;6218867;23;20014;-79
2021/07/20 06:34:21;;;;;;;40.05;20.67;;;16.90;96.80;;;;;;6220924;23;20002;-79
2021/07/20 06:36:47;;;;;;;34.08;18.88;;;17.00;96.70;;;;;;6194217;23;20004;-78
2021/07/20 06:39:14;;;;;;;29.33;17.75;;;16.90;96.50;;;;;;6220802;23;20008;-79
2021/07/20 06:41:40;;;;;;;32.33;18.95;;;17.10;96.90;;;;;;6220831;23;20007;-80
2021/07/20 06:44:06;;;;;;;28.38;18.25;;;17.30;96.40;;;;;;6220292;23;19996;-80
2021/07/20 06:46:35;;;;;;;30.67;17.48;;;17.30;96.30;;;;;;6218857;23;20012;-80
2021/07/20 06:49:01;;;;;;;30.27;18.65;;;17.30;96.20;;;;;;6193907;23;20032;-79
2021/07/20 06:51:31;;;;;;;30.67;16.98;;;17.50;96.00;;;;;;6220455;23;20004;-79
2021/07/20 06:53:57;;;;;;;30.08;17.30;;;17.50;95.80;;;;;;6220797;23;20008;-79
2021/07/20 06:56:48;;;;;;;29.25;17.02;;;17.60;95.40;;;;;;6220684;23;20072;-79
2021/07/20 06:59:14;;;;;;;29.00;16.67;;;17.70;95.20;;;;;;6212827;23;20008;-79
2021/07/20 07:01:42;;;;;;;29.42;18.55;;;17.70;95.40;;;;;;6219083;23;20067;-79
2021/07/20 07:04:07;;;;;;;27.13;16.92;;;17.50;95.40;;;;;;6220452;23;20005;-79
2021/07/20 07:06:38;;;;;;;30.88;17.55;;;17.40;96.00;;;;;;6220673;23;20007;-79
2021/07/20 07:09:05;;;;;;;26.08;15.95;;;17.60;95.50;;;;;;6220579;23;19997;-78
2021/07/20 07:11:31;;;;;;;29.05;16.73;;;17.70;95.50;;;;;;6220396;23;20000;-78
2021/07/20 07:13:57;;;;;;;27.45;16.02;;;17.70;95.60;;;;;;6220350;23;20004;-77
2021/07/20 07:16:23;;;;;;;27.52;15.68;;;17.70;95.60;;;;;;6219053;23;20266;-78
2021/07/20 07:18:49;;;;;;;28.15;17.67;;;17.80;95.60;;;;;;6220318;23;20000;-78
2021/07/20 07:21:16;;;;;;;30.02;18.15;;;17.90;94.90;;;;;;6220608;23;20004;-81
2021/07/20 07:23:43;;;;;;;29.17;17.52;;;18.00;94.80;;;;;;6220214;23;20004;-80
2021/07/20 07:26:14;;;;;;;29.50;17.38;;;17.90;95.10;;;;;;6220641;23;20004;-79
2021/07/20 07:28:45;;;;;;;32.05;17.00;;;17.80;95.40;;;;;;6220200;23;20014;-79
2021/07/20 07:31:12;;;;;;;25.35;16.30;;;18.00;95.10;;;;;;6218828;23;20007;-79
2021/07/20 07:33:38;;;;;;;24.98;15.48;;;18.00;94.60;;;;;;6219863;23;20072;-79
2021/07/20 07:36:08;;;;;;;26.42;16.60;;;18.20;94.50;;;;;;6193988;23;20005;-79
2021/07/20 07:38:35;;;;;;;25.65;15.30;;;18.50;94.20;;;;;;6220387;23;19997;-79
2021/07/20 07:41:02;;;;;;;23.83;15.77;;;19.30;92.60;;;;;;6220152;23;20027;-79
2021/07/20 07:43:30;;;;;;;25.08;14.63;;;20.10;90.10;;;;;;6220098;23;20007;-79
2021/07/20 07:45:59;;;;;;;23.63;13.90;;;20.90;87.40;;;;;;6218841;23;20027;-79
2021/07/20 07:48:26;;;;;;;26.15;14.77;;;21.70;85.40;;;;;;6220390;23;20051;-79
2021/07/20 07:50:55;;;;;;;21.92;13.02;;;22.20;84.00;;;;;;6220019;23;20062;-79
2021/07/20 07:53:21;;;;;;;23.17;14.07;;;22.30;83.50;;;;;;6220343;23;20058;-79
2021/07/20 07:55:47;;;;;;;20.60;12.38;;;23.00;80.50;;;;;;6193654;23;20362;-79
2021/07/20 07:58:15;;;;;;;22.23;13.25;;;22.90;81.00;;;;;;6193850;23;20000;-79
2021/07/20 08:00:42;;;;;;;21.48;13.32;;;23.30;79.30;;;;;;6218143;23;20263;-79
2021/07/20 08:03:10;;;;;;;22.70;13.32;;;23.80;77.90;;;;;;6220504;23;20059;-79
2021/07/20 08:05:36;;;;;;;20.70;12.43;;;24.20;77.70;;;;;;6220248;23;20000;-79
2021/07/20 08:08:02;;;;;;;17.17;11.80;;;24.80;75.80;;;;;;6220064;23;20284;-80
2021/07/20 08:10:29;;;;;;;21.20;13.00;;;25.60;73.50;;;;;;6193427;23;20084;-79
2021/07/20 08:12:58;;;;;;;19.77;12.50;;;25.10;73.60;;;;;;6220187;23;20024;-80
2021/07/20 08:15:26;;;;;;;21.27;12.77;;;25.30;73.90;;;;;;6218396;23;20008;-80
2021/07/20 08:17:53;;;;;;;20.27;12.95;;;25.50;72.40;;;;;;6220010;23;19996;-79
2021/07/20 08:20:20;;;;;;;18.52;12.23;;;25.30;72.30;;;;;;6219954;23;20004;-80
2021/07/20 08:22:48;;;;;;;17.52;10.75;;;24.90;73.90;;;;;;6219840;23;20375;-80
2021/07/20 08:25:27;;;;;;;17.08;11.40;;;24.70;74.60;;;;;;6219921;23;20370;-80
2021/07/20 08:28:16;;;;;;;16.17;11.05;;;25.40;73.00;;;;;;6219881;23;20060;-79
2021/07/20 08:30:49;;;;;;;16.52;11.20;;;26.00;71.60;;;;;;6218079;23;20004;-79
2021/07/20 08:33:22;;;;;;;19.30;11.00;;;25.80;71.00;;;;;;6219544;23;20005;-80
2021/07/20 08:35:49;;;;;;;19.45;10.45;;;25.50;71.40;;;;;;6219581;23;20032;-79
2021/07/20 08:38:18;;;;;;;20.02;10.65;;;25.70;70.90;;;;;;6219783;23;19996;-78
2021/07/20 08:40:50;;;;;;;17.35;10.25;;;25.10;71.30;;;;;;6219730;23;20000;-78
2021/07/20 08:43:33;;;;;;;22.33;11.82;;;25.60;70.20;;;;;;6219653;23;20083;-79
2021/07/20 08:46:13;;;;;;;19.52;11.85;;;25.50;71.60;;;;;;6217318;23;20016;-79
2021/07/20 08:49:05;;;;;;;21.17;11.68;;;26.30;70.40;;;;;;6193160;23;20004;-78
2021/07/20 08:51:49;;;;;;;16.77;10.90;;;26.40;70.70;;;;;;6219135;23;20440;-79
2021/07/20 08:54:26;;;;;;;18.63;11.67;;;26.80;69.60;;;;;;6219668;23;20003;-79
2021/07/20 08:56:56;;;;;;;19.90;11.93;;;27.10;69.90;;;;;;6193038;23;20251;-79
2021/07/20 08:59:31;;;;;;;20.23;10.48;;;27.10;70.00;;;;;;6219482;23;19996;-79
2021/07/20 09:02:21;;;;;;;16.20;10.73;;;27.50;69.40;;;;;;6219694;23;20032;-78
2021/07/20 09:04:58;;;;;;;19.17;11.15;;;27.80;68.50;;;;;;6193122;23;20005;-79
2021/07/20 09:07:30;;;;;;;18.00;10.68;;;28.20;66.60;;;;;;6219202;23;20066;-79
2021/07/20 09:09:57;;;;;;;15.15;10.05;;;27.60;65.50;;;;;;6219502;23;20083;-79
2021/07/20 09:12:30;;;;;;;14.88;9.52;;;26.90;67.00;;;;;;6219484;23;20005;-79
2021/07/20 09:15:26;;;;;;;14.25;9.07;;;27.30;66.70;;;;;;6191381;23;20070;-79
2021/07/20 09:18:14;;;;;;;14.85;9.15;;;27.50;65.00;;;;;;6216630;23;20001;-79
2021/07/20 09:20:50;;;;;;;16.50;9.93;;;28.00;65.50;;;;;;6219416;23;20005;-78
2021/07/20 09:23:33;;;;;;;16.60;10.00;;;28.00;64.30;;;;;;6219568;23;20001;-79
2021/07/20 09:26:14;;;;;;;15.57;9.73;;;27.90;64.70;;;;;;6192911;23;20065;-79
2021/07/20 09:28:42;;;;;;;16.48;10.02;;;27.50;64.80;;;;;;6219043;23;20062;-79
2021/07/20 09:31:24;;;;;;;17.65;10.05;;;27.00;66.60;;;;;;6191132;23;20011;-79
2021/07/20 09:34:06;;;;;;;19.85;10.65;;;26.80;65.30;;;;;;6219273;23;20244;-79
2021/07/20 09:36:47;;;;;;;16.17;9.45;;;26.90;66.50;;;;;;6192129;23;20432;-79
2021/07/20 09:39:34;;;;;;;17.60;10.75;;;27.50;65.30;;;;;;6192868;23;20047;-79
2021/07/20 09:42:13;;;;;;;17.67;10.95;;;27.80;65.80;;;;;;6218781;23;20358;-79
2021/07/20 09:45:01;;;;;;;20.48;11.50;;;27.70;65.10;;;;;;6217261;23;20008;-80
2021/07/20 09:47:40;;;;;;;20.63;11.40;;;26.80;67.20;;;;;;6218863;23;20397;-80
2021/07/20 09:50:10;;;;;;;18.15;11.48;;;26.50;68.40;;;;;;6192564;23;20008;-79
2021/07/20 09:52:39;;;;;;;17.88;9.98;;;26.90;68.20;;;;;;6218877;23;19997;-79
2021/07/20 09:55:14;;;;;;;20.45;12.02;;;27.40;67.20;;;;;;6192722;23;20079;-79
2021/07/20 09:58:21;;;;;;;16.30;10.10;;;27.50;64.10;;;;;;6192017;23;20062;-79
2021/07/20 10:00:50;;;;;;;17.63;10.35;;;27.10;67.70;;;;;;6217324;23;20001;-79
2021/07/20 10:03:34;;;;;;;17.58;10.90;;;28.20;63.90;;;;;;6218758;23;20008;-79
2021/07/20 10:06:13;;;;;;;18.23;11.98;;;27.70;64.30;;;;;;6219048;23;20032;-78
2021/07/20 10:09:09;;;;;;;16.10;10.85;;;27.40;65.70;;;;;;6219088;23;20271;-78
2021/07/20 10:11:53;;;;;;;18.52;11.88;;;27.40;67.70;;;;;;6218729;23;20370;-79
2021/07/20 10:14:27;;;;;;;17.92;11.48;;;27.60;65.00;;;;;;6218517;23;20008;-78
2021/07/20 10:17:12;;;;;;;18.98;11.70;;;27.40;65.00;;;;;;6217576;23;20005;-81
2021/07/20 10:20:12;;;;;;;20.48;11.77;;;27.50;65.70;;;;;;6219046;23;20007;-80
2021/07/20 10:22:50;;;;;;;16.30;10.57;;;27.50;65.10;;;;;;6182746;23;20032;-79
2021/07/20 10:25:40;;;;;;;19.02;11.80;;;27.60;66.10;;;;;;6218766;23;20351;-80
2021/07/20 10:28:14;;;;;;;17.35;11.95;;;28.00;64.70;;;;;;6218248;23;20262;-80
2021/07/20 10:30:48;;;;;;;19.80;12.20;;;28.00;64.30;;;;;;6217172;23;20265;-80
2021/07/20 10:33:51;;;;;;;18.15;11.65;;;27.80;65.20;;;;;;6218952;23;19996;-79
2021/07/20 10:36:35;;;;;;;19.77;11.87;;;27.00;65.90;;;;;;6180522;23;20382;-79
2021/07/20 10:39:09;;;;;;;17.40;11.43;;;26.00;68.00;;;;;;6218797;23;20232;-78
2021/07/20 10:41:38;;;;;;;;;;;26.40;67.10;;;;;;6219121;23;20001;-79
2021/07/20 10:44:07;;;;;;;19.40;11.10;;;27.40;66.10;;;;;;6218949;23;19945;-79
2021/07/20 10:46:35;;;;;;;19.65;11.20;;;28.30;62.80;;;;;;6217209;23;20020;-79
2021/07/20 10:49:14;;;;;;;18.00;10.70;;;28.50;62.40;;;;;;6192408;23;20311;-79
2021/07/20 10:51:46;;;;;;;18.40;11.23;;;28.40;64.40;;;;;;6192524;23;20266;-79
2021/07/20 10:54:29;;;;;;;19.65;11.63;;;28.90;62.70;;;;;;6218648;23;19997;-80
2021/07/20 10:56:56;;;;;;;19.38;10.82;;;28.90;63.80;;;;;;6218914;23;20405;-79
2021/07/20 10:59:40;;;;;;;21.58;11.57;;;29.10;62.60;;;;;;6192762;23;20001;-78
2021/07/20 11:02:26;;;;;;;18.45;10.63;;;28.00;63.20;;;;;;6218521;23;20000;-80
2021/07/20 11:04:59;;;;;;;19.75;12.27;;;28.10;64.10;;;;;;6218624;23;20004;-79
2021/07/20 11:07:34;;;;;;;19.75;11.07;;;27.80;64.00;;;;;;6218984;23;20035;-79
2021/07/20 11:10:13;;;;;;;17.25;11.40;;;27.80;64.50;;;;;;6220518;23;20032;-79
2021/07/20 11:12:42;;;;;;;18.92;11.65;;;27.70;65.30;;;;;;6220397;23;20024;-79
2021/07/20 11:15:09;;;;;;;18.73;11.77;;;28.10;65.90;;;;;;6192858;23;20005;-80
2021/07/20 11:17:37;;;;;;;16.80;11.20;;;28.50;64.40;;;;;;6193944;23;20248;-79
2021/07/20 11:20:08;;;;;;;21.63;12.00;;;28.60;64.90;;;;;;6220480;23;19996;-80
2021/07/20 11:22:36;;;;;;;21.55;11.25;;;28.20;63.50;;;;;;6220408;23;20016;-80
2021/07/20 11:25:04;;;;;;;18.85;12.00;;;28.10;63.90;;;;;;6220424;23;20000;-80
2021/07/20 11:27:30;;;;;;;18.02;11.23;;;28.00;63.90;;;;;;6220255;23;20004;-80
2021/07/20 11:29:56;;;;;;;18.15;11.63;;;27.50;63.00;;;;;;6218763;23;20000;-81
2021/07/20 11:32:28;;;;;;;20.05;11.60;;;26.90;64.40;;;;;;6220209;23;20001;-79
2021/07/20 11:35:09;;;;;;;18.33;11.35;;;26.90;63.70;;;;;;6220082;23;20001;-79
2021/07/20 11:37:40;;;;;;;15.05;10.00;;;27.40;62.80;;;;;;6220298;23;20028;-80
2021/07/20 11:40:20;;;;;;;15.48;10.30;;;28.00;62.20;;;;;;6220466;23;20004;-80
2021/07/20 11:43:02;;;;;;;21.25;11.48;;;28.40;63.00;;;;;;6220065;23;19997;-80
2021/07/20 11:45:37;;;;;;;19.63;11.80;;;28.50;61.90;;;;;;6218561;23;20090;-80
2021/07/20 11:48:06;;;;;;;18.92;11.30;;;27.80;61.80;;;;;;6220235;23;20001;-80
2021/07/20 11:50:39;;;;;;;21.10;11.82;;;27.10;62.90;;;;;;6220499;23;20005;-80
2021/07/20 11:53:23;;;;;;;21.73;11.60;;;26.70;63.60;;;;;;6219818;23;20325;-80
2021/07/20 11:55:53;;;;;;;19.20;11.60;;;26.60;63.70;;;;;;6220011;23;20374;-80
2021/07/20 11:58:34;;;;;;;18.42;11.73;;;26.80;67.70;;;;;;6220293;23;20035;-80
2021/07/20 12:01:06;;;;;;;21.20;11.75;;;27.00;65.00;;;;;;6191716;23;20031;-80
2021/07/20 12:04:19;;;;;;;18.60;12.05;;;27.50;66.90;;;;;;6193296;23;20012;-81
2021/07/20 12:07:11;;;;;;;19.50;12.43;;;28.20;64.00;;;;;;6157728;23;20012;-80
2021/07/20 12:09:55;;;;;;;23.20;13.77;;;28.40;61.50;;;;;;6220006;23;20366;-80
2021/07/20 12:12:32;;;;;;;20.17;13.05;;;28.40;61.90;;;;;;6193420;23;20251;-79
2021/07/20 12:14:58;;;;;;;24.88;13.98;;;28.30;64.30;;;;;;6218231;23;19997;-80
2021/07/20 12:17:34;;;;;;;22.90;14.00;;;28.00;63.10;;;;;;6193191;23;20005;-80
2021/07/20 12:19:59;;;;;;;25.05;14.10;;;27.40;64.60;;;;;;6219550;23;20000;-79
2021/07/20 12:22:25;;;;;;;23.98;14.68;;;27.30;65.50;;;;;;6219963;23;20062;-80
2021/07/20 12:24:54;;;;;;;22.15;13.45;;;27.10;64.70;;;;;;6219057;23;20075;-80
2021/07/20 12:27:21;;;;;;;28.20;15.07;;;26.90;66.70;;;;;;6220296;23;20075;-80
2021/07/20 12:29:52;;;;;;;22.50;13.95;;;27.00;66.40;;;;;;6218148;23;20004;-79
2021/07/20 12:32:18;;;;;;;26.65;15.55;;;26.80;67.90;;;;;;6219703;23;20007;-80
2021/07/20 12:34:49;;;;;;;25.88;14.60;;;26.60;66.00;;;;;;6219253;23;20266;-80
2021/07/20 12:37:15;;;;;;;22.13;14.77;;;27.30;67.00;;;;;;6219339;23;20077;-80
2021/07/20 12:39:41;;;;;;;21.73;14.43;;;28.00;64.00;;;;;;6219908;23;20072;-80
2021/07/20 12:42:08;;;;;;;19.75;13.07;;;27.90;64.50;;;;;;6219605;23;20039;-80
2021/07/20 12:44:35;;;;;;;25.30;14.23;;;28.30;64.90;;;;;;6217926;23;20011;-80
2021/07/20 12:47:06;;;;;;;21.38;14.65;;;28.60;63.80;;;;;;6193369;23;20087;-80
2021/07/20 12:49:35;;;;;;;22.50;13.98;;;28.50;60.90;;;;;;6218983;23;20394;-80